createdAt,value
2018-09-09T00:01:12.887Z,95274.87
2018-09-09T00:03:42.002Z,95269.16
2018-09-09T00:06:10.952Z,95276.61
2018-09-09T00:08:39.835Z,95267.14
2018-09-09T00:11:08.734Z,95273.97
2018-09-09T00:13:37.934Z,95272.83
2018-09-09T00:16:07.131Z,95261.97
2018-09-09T00:18:36.068Z,95266.89
2018-09-09T00:21:04.930Z,95265.02
2018-09-09T00:23:34.136Z,95266.05
2018-09-09T00:26:03.258Z,95267.92
2018-09-09T00:28:32.322Z,95265.91
2018-09-09T00:31:01.424Z,95271.33
2018-09-09T00:33:30.983Z,95269.94
2018-09-09T00:35:59.954Z,95269.42
2018-09-09T00:38:28.924Z,95273.59
2018-09-09T00:40:58.447Z,95274.38
2018-09-09T00:43:27.519Z,95280.03
2018-09-09T00:45:56.517Z,95273.72
2018-09-09T00:48:25.982Z,95279.41
2018-09-09T00:51:00.159Z,95276.25
2018-09-09T00:53:34.762Z,95283.19
2018-09-09T00:56:03.756Z,95279.16
2018-09-09T00:58:32.943Z,95276.30
2018-09-09T01:01:07.199Z,95285.26
2018-09-09T01:03:36.398Z,95279.19
2018-09-09T01:06:05.375Z,95273.14
2018-09-09T01:08:34.692Z,95270.45
2018-09-09T01:11:03.867Z,95268.69
2018-09-09T01:13:32.962Z,95265.02
2018-09-09T01:16:02.113Z,95269.92
2018-09-09T01:18:31.051Z,95273.56
2018-09-09T01:21:00.055Z,95278.87
2018-09-09T01:23:29.703Z,95273.05
2018-09-09T01:25:59.091Z,95265.07
2018-09-09T01:28:28.168Z,95272.91
2018-09-09T01:30:57.591Z,95275.41
2018-09-09T01:33:26.660Z,95277.80
2018-09-09T01:35:55.863Z,95276.79
2018-09-09T01:38:24.830Z,95278.56
2018-09-09T01:40:53.730Z,95280.57
2018-09-09T01:43:22.640Z,95281.23
2018-09-09T01:45:52.171Z,95278.45
2018-09-09T01:48:21.228Z,95284.77
2018-09-09T01:50:50.422Z,95272.14
2018-09-09T01:53:19.775Z,95271.73
2018-09-09T01:55:48.479Z,95277.80
2018-09-09T01:58:17.423Z,95273.11
2018-09-09T02:00:46.970Z,95273.73
2018-09-09T02:03:16.115Z,95281.95
2018-09-09T02:05:44.998Z,95283.83
2018-09-09T02:08:13.957Z,95287.12
2018-09-09T02:10:43.007Z,95283.83
2018-09-09T02:13:12.019Z,95288.61
2018-09-09T02:15:41.526Z,95284.06
2018-09-09T02:18:10.687Z,95285.94
2018-09-09T02:20:39.405Z,95287.95
2018-09-09T02:23:08.927Z,95287.80
2018-09-09T02:25:37.895Z,95286.55
2018-09-09T02:28:07.075Z,95288.30
2018-09-09T02:30:36.122Z,95288.39
2018-09-09T02:33:05.403Z,95293.02
2018-09-09T02:35:34.594Z,95291.11
2018-09-09T02:38:04.049Z,95290.34
2018-09-09T02:40:33.170Z,95290.06
2018-09-09T02:43:02.263Z,95291.29
2018-09-09T02:45:31.299Z,95288.36
2018-09-09T02:48:00.377Z,95286.65
2018-09-09T02:50:29.274Z,95288.28
2018-09-09T02:52:58.545Z,95288.56
2018-09-09T02:55:27.474Z,95293.27
2018-09-09T02:57:56.555Z,95291.89
2018-09-09T03:00:25.764Z,95286.30
2018-09-09T03:02:54.763Z,95293.34
2018-09-09T03:05:23.843Z,95292.53
2018-09-09T03:07:53.260Z,95281.42
2018-09-09T03:10:22.148Z,95278.34
2018-09-09T03:12:51.145Z,95284.14
2018-09-09T03:15:20.183Z,95280.61
2018-09-09T03:17:49.235Z,95276.85
2018-09-09T03:20:18.324Z,95283.69
2018-09-09T03:22:47.646Z,95285.75
2018-09-09T03:25:16.633Z,95289.22
2018-09-09T03:27:45.715Z,95284.05
2018-09-09T03:30:14.943Z,95283.03
2018-09-09T03:32:44.034Z,95286.36
2018-09-09T03:35:13.150Z,95283.56
2018-09-09T03:37:42.567Z,95281.63
2018-09-09T03:40:11.806Z,95287.65
2018-09-09T03:42:40.706Z,95289.66
2018-09-09T03:45:09.885Z,95294.85
2018-09-09T03:47:38.912Z,95294.45
2018-09-09T03:50:08.095Z,95295.95
2018-09-09T03:52:37.435Z,95297.62
2018-09-09T03:55:06.595Z,95295.61
2018-09-09T03:57:35.620Z,95294.97
2018-09-09T04:00:04.931Z,95296.09
2018-09-09T04:02:34.245Z,95293.33
2018-09-09T04:05:03.328Z,95307.23
2018-09-09T04:07:32.735Z,95303.48
2018-09-09T04:10:01.624Z,95306.90
2018-09-09T04:12:30.583Z,95310.89
2018-09-09T04:14:59.799Z,95314.91
2018-09-09T04:17:28.805Z,95318.22
2018-09-09T04:19:58.096Z,95314.50
2018-09-09T04:22:27.320Z,95320.52
2018-09-09T04:24:56.283Z,95320.80
2018-09-09T04:27:25.182Z,95321.42
2018-09-09T04:29:54.427Z,95320.66
2018-09-09T04:32:23.454Z,95322.81
2018-09-09T04:34:52.438Z,95323.16
2018-09-09T04:37:21.893Z,95322.39
2018-09-09T04:39:51.063Z,95328.52
2018-09-09T04:42:19.946Z,95328.02
2018-09-09T04:44:49.325Z,95334.27
2018-09-09T04:47:18.345Z,95337.33
2018-09-09T04:49:47.236Z,95337.85
2018-09-09T04:52:16.166Z,95340.81
2018-09-09T04:54:45.143Z,95344.08
2018-09-09T04:57:14.241Z,95337.86
2018-09-09T04:59:43.339Z,95341.68
2018-09-09T05:02:12.218Z,95338.91
2018-09-09T05:04:41.230Z,95344.98
2018-09-09T05:07:11.030Z,95340.80
2018-09-09T05:09:40.092Z,95345.16
2018-09-09T05:12:08.943Z,95346.26
2018-09-09T05:14:38.167Z,95339.59
2018-09-09T05:17:07.227Z,95346.34
2018-09-09T05:19:36.483Z,95352.15
2018-09-09T05:22:05.761Z,95356.86
2018-09-09T05:24:34.803Z,95347.13
2018-09-09T05:27:03.819Z,95350.31
2018-09-09T05:29:32.938Z,95356.36
2018-09-09T05:32:01.923Z,95356.51
2018-09-09T05:34:30.954Z,95353.73
2018-09-09T05:37:00.231Z,95360.92
2018-09-09T05:39:30.194Z,95359.19
2018-09-09T05:41:59.344Z,95359.06
2018-09-09T05:44:28.755Z,95346.58
2018-09-09T05:46:57.827Z,95356.10
2018-09-09T05:49:26.789Z,95350.73
2018-09-09T05:51:56.130Z,95356.69
2018-09-09T05:54:25.712Z,95359.05
2018-09-09T05:56:54.734Z,95356.94
2018-09-09T05:59:24.036Z,95363.30
2018-09-09T06:01:53.499Z,95360.31
2018-09-09T06:04:22.659Z,95351.67
2018-09-09T06:06:51.929Z,95355.51
2018-09-09T06:09:21.064Z,95356.88
2018-09-09T06:11:49.995Z,95362.81
2018-09-09T06:14:19.509Z,95358.00
2018-09-09T06:16:48.540Z,95361.30
2018-09-09T06:19:17.819Z,95364.22
2018-09-09T06:21:47.278Z,95366.47
2018-09-09T06:24:16.217Z,95371.98
2018-09-09T06:26:45.306Z,95368.96
2018-09-09T06:29:14.602Z,95367.37
2018-09-09T06:31:43.700Z,95366.93
2018-09-09T06:34:12.947Z,95370.09
2018-09-09T06:36:42.330Z,95367.90
2018-09-09T06:39:12.375Z,95368.47
2018-09-09T06:41:41.329Z,95375.77
2018-09-09T06:44:10.382Z,95371.80
2018-09-09T06:46:39.429Z,95377.27
2018-09-09T06:49:08.643Z,95385.75
2018-09-09T06:51:38.014Z,95377.17
2018-09-09T06:54:07.011Z,95380.32
2018-09-09T06:56:35.994Z,95376.80
2018-09-09T06:59:04.831Z,95372.78
2018-09-09T07:01:33.787Z,95375.97
2018-09-09T07:04:02.905Z,95380.20
2018-09-09T07:06:32.422Z,95380.03
2018-09-09T07:09:01.296Z,95378.03
2018-09-09T07:11:30.365Z,95378.88
2018-09-09T07:13:59.811Z,95374.80
2018-09-09T07:16:28.980Z,95371.81
2018-09-09T07:18:58.157Z,95372.69
2018-09-09T07:21:27.722Z,95372.28
2018-09-09T07:23:56.694Z,95375.41
2018-09-09T07:26:26.199Z,95378.43
2018-09-09T07:28:55.485Z,95365.81
2018-09-09T07:31:24.741Z,95369.17
2018-09-09T07:33:53.753Z,95372.81
2018-09-09T07:36:23.119Z,95373.64
2018-09-09T07:38:52.370Z,95376.20
2018-09-09T07:41:21.382Z,95376.01
2018-09-09T07:43:50.814Z,95375.45
2018-09-09T07:46:19.919Z,95376.45
2018-09-09T07:48:49.079Z,95370.36
2018-09-09T07:51:18.928Z,95374.29
2018-09-09T07:53:47.890Z,95376.28
2018-09-09T07:56:16.959Z,95380.31
2018-09-09T07:58:45.930Z,95372.80
2018-09-09T08:01:14.992Z,95368.12
2018-09-09T08:03:44.166Z,95374.95
2018-09-09T08:06:13.295Z,95373.03
2018-09-09T08:08:42.379Z,95365.98
2018-09-09T08:11:11.366Z,95365.97
2018-09-09T08:13:40.900Z,95361.89
2018-09-09T08:16:10.092Z,95354.38
2018-09-09T08:18:39.067Z,95358.97
2018-09-09T08:21:08.403Z,95368.09
2018-09-09T08:23:37.439Z,95364.61
2018-09-09T08:26:06.563Z,95356.85
2018-09-09T08:28:36.095Z,95363.91
2018-09-09T08:31:05.169Z,95360.84
2018-09-09T08:33:34.251Z,95366.92
2018-09-09T08:36:03.673Z,95353.69
2018-09-09T08:38:32.880Z,95350.91
2018-09-09T08:41:01.799Z,95357.47
2018-09-09T08:43:30.885Z,95349.84
2018-09-09T08:45:59.874Z,95348.73
2018-09-09T08:48:29.551Z,95350.08
2018-09-09T08:50:59.107Z,95340.31
2018-09-09T08:53:28.460Z,95334.06
2018-09-09T08:55:57.810Z,95333.37
2018-09-09T08:58:27.243Z,95325.30
2018-09-09T09:00:56.170Z,95329.72
2018-09-09T09:03:25.167Z,95322.78
2018-09-09T09:05:54.352Z,95318.08
2018-09-09T09:08:23.295Z,95319.44
2018-09-09T09:10:52.155Z,95318.81
2018-09-09T09:13:21.559Z,95303.14
2018-09-09T09:15:50.735Z,95313.98
2018-09-09T09:18:19.765Z,95312.25
2018-09-09T09:20:48.692Z,95298.47
2018-09-09T09:23:17.844Z,95304.36
2018-09-09T09:25:52.876Z,95304.88
2018-09-09T09:28:22.749Z,95298.09
2018-09-09T09:30:52.643Z,95304.40
2018-09-09T09:33:21.980Z,95305.08
2018-09-09T09:35:52.426Z,95303.17
2018-09-09T09:38:22.461Z,95304.64
2018-09-09T09:40:52.282Z,95302.29
2018-09-09T09:43:21.376Z,95297.63
2018-09-09T09:45:50.349Z,95287.45
2018-09-09T09:48:19.365Z,95288.68
2018-09-09T09:50:48.270Z,95288.59
2018-09-09T09:53:17.527Z,95289.38
2018-09-09T09:55:46.791Z,95279.05
2018-09-09T09:58:16.072Z,95282.94
2018-09-09T10:00:51.063Z,95274.23
2018-09-09T10:03:19.973Z,95264.55
2018-09-09T10:05:48.892Z,95259.91
2018-09-09T10:08:18.515Z,95261.70
2018-09-09T10:10:47.600Z,95265.08
2018-09-09T10:13:16.987Z,95257.72
2018-09-09T10:15:46.514Z,95248.34
2018-09-09T10:18:15.466Z,95246.74
2018-09-09T10:20:44.588Z,95241.58
2018-09-09T10:23:13.602Z,95241.37
2018-09-09T10:25:42.719Z,95230.25
2018-09-09T10:28:11.678Z,95233.41
2018-09-09T10:30:40.811Z,95236.70
2018-09-09T10:33:09.891Z,95236.23
2018-09-09T10:35:38.881Z,95232.78
2018-09-09T10:38:08.171Z,95243.39
2018-09-09T10:40:37.254Z,95235.26
2018-09-09T10:43:06.243Z,95231.73
2018-09-09T10:45:35.672Z,95232.41
2018-09-09T10:48:04.864Z,95236.95
2018-09-09T10:50:33.909Z,95233.67
2018-09-09T10:53:03.232Z,95230.95
2018-09-09T10:55:32.459Z,95227.30
2018-09-09T10:58:01.761Z,95223.17
2018-09-09T11:00:31.507Z,95215.76
2018-09-09T11:03:00.656Z,95211.41
2018-09-09T11:05:29.669Z,95213.34
2018-09-09T11:07:58.864Z,95212.35
2018-09-09T11:10:27.876Z,95212.76
2018-09-09T11:12:56.980Z,95204.81
2018-09-09T11:15:26.279Z,95202.09
2018-09-09T11:17:55.114Z,95212.98
2018-09-09T11:20:24.219Z,95224.33
2018-09-09T11:22:53.531Z,95222.52
2018-09-09T11:25:22.435Z,95230.09
2018-09-09T11:27:51.412Z,95236.20
2018-09-09T11:30:20.570Z,95259.19
2018-09-09T11:32:49.854Z,95227.19
2018-09-09T11:35:19.124Z,95214.02
2018-09-09T11:37:48.247Z,95196.65
2018-09-09T11:40:17.428Z,95192.31
2018-09-09T11:42:46.314Z,95203.11
2018-09-09T11:45:15.351Z,95202.33
2018-09-09T11:47:44.317Z,95208.70
2018-09-09T11:50:13.511Z,95208.13
2018-09-09T11:52:42.427Z,95208.27
2018-09-09T11:55:11.707Z,95230.17
2018-09-09T11:57:40.758Z,95220.38
2018-09-09T12:00:10.299Z,95217.26
2018-09-09T12:02:39.207Z,95206.30
2018-09-09T12:05:08.303Z,95202.44
2018-09-09T12:07:37.687Z,95197.16
2018-09-09T12:10:06.627Z,95199.89
2018-09-09T12:12:35.595Z,95212.28
2018-09-09T12:15:04.787Z,95205.77
2018-09-09T12:17:33.795Z,95203.14
2018-09-09T12:20:02.724Z,95198.16
2018-09-09T12:22:31.982Z,95192.27
2018-09-09T12:25:00.772Z,95188.34
2018-09-09T12:27:29.755Z,95185.41
2018-09-09T12:29:59.095Z,95190.84
2018-09-09T12:32:27.954Z,95180.81
2018-09-09T12:34:57.255Z,95180.72
2018-09-09T12:37:26.628Z,95181.28
2018-09-09T12:39:55.652Z,95187.19
2018-09-09T12:42:25.159Z,95192.74
2018-09-09T12:44:59.708Z,95205.56
2018-09-09T12:47:34.011Z,95219.74
2018-09-09T12:50:03.482Z,95231.48
2018-09-09T12:52:32.711Z,95228.70
2018-09-09T12:55:01.917Z,95229.49
2018-09-09T12:57:31.940Z,95220.84
2018-09-09T13:00:01.189Z,95214.13
2018-09-09T13:02:30.228Z,95218.69
2018-09-09T13:04:59.232Z,95208.02
2018-09-09T13:07:28.183Z,95200.09
2018-09-09T13:09:57.201Z,95211.27
2018-09-09T13:12:30.846Z,95215.51
2018-09-09T13:14:59.847Z,95209.30
2018-09-09T13:17:29.015Z,95202.53
2018-09-09T13:19:57.987Z,95204.82
2018-09-09T13:22:27.000Z,95205.64
2018-09-09T13:24:56.155Z,95208.41
2018-09-09T13:27:25.007Z,95211.97
2018-09-09T13:29:54.101Z,95213.14
2018-09-09T13:32:23.073Z,95218.85
2018-09-09T13:34:52.604Z,95219.73
2018-09-09T13:37:22.488Z,95220.11
2018-09-09T13:39:51.379Z,95215.96
2018-09-09T13:42:20.425Z,95221.95
2018-09-09T13:44:49.470Z,95233.39
2018-09-09T13:47:18.367Z,95225.47
2018-09-09T13:49:47.712Z,95225.44
2018-09-09T13:52:16.899Z,95218.89
2018-09-09T13:54:45.979Z,95212.44
2018-09-09T13:57:15.517Z,95208.84
2018-09-09T13:59:44.639Z,95210.16
2018-09-09T14:02:13.738Z,95203.05
2018-09-09T14:04:43.172Z,95208.33
2018-09-09T14:07:12.282Z,95209.63
2018-09-09T14:09:41.205Z,95206.65
2018-09-09T14:12:10.677Z,95203.72
2018-09-09T14:14:39.531Z,95198.00
2018-09-09T14:17:08.583Z,95200.77
2018-09-09T14:19:37.485Z,95201.40
2018-09-09T14:22:06.569Z,95194.08
2018-09-09T14:24:35.742Z,95199.89
2018-09-09T14:27:05.371Z,95196.10
2018-09-09T14:29:34.348Z,95195.28
2018-09-09T14:32:03.452Z,95199.67
2018-09-09T14:34:33.060Z,95197.74
2018-09-09T14:37:02.136Z,95202.31
2018-09-09T14:39:31.149Z,95198.53
2018-09-09T14:42:00.777Z,95194.91
2018-09-09T14:44:30.040Z,95191.53
2018-09-09T14:46:59.052Z,95203.39
2018-09-09T14:49:28.473Z,95192.78
2018-09-09T14:51:57.655Z,95202.41
2018-09-09T14:54:26.533Z,95198.27
2018-09-09T14:56:55.743Z,95199.37
2018-09-09T14:59:24.703Z,95199.08
2018-09-09T15:01:53.627Z,95207.05
2018-09-09T15:04:23.105Z,95194.81
2018-09-09T15:06:52.204Z,95200.30
2018-09-09T15:09:21.488Z,95199.87
2018-09-09T15:11:51.118Z,95192.00
2018-09-09T15:14:20.278Z,95200.41
2018-09-09T15:16:49.300Z,95191.80
2018-09-09T15:19:18.916Z,95197.28
2018-09-09T15:21:48.005Z,95204.05
2018-09-09T15:24:16.998Z,95206.65
2018-09-09T15:26:46.214Z,95206.42
2018-09-09T15:29:15.908Z,95208.36
2018-09-09T15:31:45.100Z,95203.73
2018-09-09T15:34:14.533Z,95206.77
2018-09-09T15:36:43.782Z,95209.11
2018-09-09T15:39:12.854Z,95211.50
2018-09-09T15:41:42.122Z,95211.16
2018-09-09T15:44:11.379Z,95220.64
2018-09-09T15:46:40.404Z,95218.28
2018-09-09T15:49:09.463Z,95216.44
2018-09-09T15:51:38.580Z,95216.00
2018-09-09T15:54:07.572Z,95227.11
2018-09-09T15:56:36.819Z,95223.64
2018-09-09T15:59:06.694Z,95223.83
2018-09-09T16:01:35.799Z,95227.16
2018-09-09T16:04:05.343Z,95228.43
2018-09-09T16:06:34.607Z,95229.30
2018-09-09T16:09:03.736Z,95227.14
2018-09-09T16:11:32.929Z,95231.63
2018-09-09T16:14:01.903Z,95229.27
2018-09-09T16:16:30.796Z,95226.66
2018-09-09T16:19:00.035Z,95233.84
2018-09-09T16:21:28.992Z,95236.73
2018-09-09T16:23:58.035Z,95240.89
2018-09-09T16:26:27.271Z,95242.56
2018-09-09T16:28:56.247Z,95237.16
2018-09-09T16:31:25.343Z,95236.89
2018-09-09T16:33:54.411Z,95243.07
2018-09-09T16:36:23.559Z,95252.37
2018-09-09T16:38:52.569Z,95250.27
2018-09-09T16:41:21.581Z,95249.33
2018-09-09T16:43:50.663Z,95253.18
2018-09-09T16:46:19.862Z,95254.44
2018-09-09T16:48:49.397Z,95252.03
2018-09-09T16:51:18.463Z,95255.47
2018-09-09T16:53:47.342Z,95257.67
2018-09-09T16:56:16.426Z,95260.75
2018-09-09T16:58:45.978Z,95257.28
2018-09-09T17:01:14.914Z,95258.16
2018-09-09T17:03:44.751Z,95263.61
2018-09-09T17:06:13.890Z,95260.98
2018-09-09T17:08:42.947Z,95265.12
2018-09-09T17:11:12.807Z,95258.85
2018-09-09T17:13:41.944Z,95267.85
2018-09-09T17:16:10.963Z,95269.41
2018-09-09T17:18:40.082Z,95266.03
2018-09-09T17:21:09.150Z,95272.36
2018-09-09T17:23:37.935Z,95278.36
2018-09-09T17:26:06.982Z,95283.58
2018-09-09T17:28:36.023Z,95285.55
2018-09-09T17:31:05.044Z,95290.77
2018-09-09T17:33:34.463Z,95293.17
2018-09-09T17:36:03.528Z,95299.70
2018-09-09T17:38:32.722Z,95297.83
2018-09-09T17:41:02.259Z,95301.27
2018-09-09T17:43:31.358Z,95307.75
2018-09-09T17:46:00.338Z,95309.42
2018-09-09T17:48:29.544Z,95320.97
2018-09-09T17:50:58.427Z,95314.66
2018-09-09T17:53:27.535Z,95318.12
2018-09-09T17:55:57.247Z,95320.56
2018-09-09T17:58:26.327Z,95319.80
2018-09-09T18:00:55.742Z,95323.58
2018-09-09T18:03:24.639Z,95330.18
2018-09-09T18:05:53.622Z,95330.05
2018-09-09T18:08:22.822Z,95330.23
2018-09-09T18:10:51.790Z,95333.02
2018-09-09T18:13:20.602Z,95333.11
2018-09-09T18:15:49.610Z,95337.92
2018-09-09T18:18:18.801Z,95337.29
2018-09-09T18:20:47.826Z,95350.86
2018-09-09T18:23:17.060Z,95349.61
2018-09-09T18:25:46.011Z,95352.52
2018-09-09T18:28:14.880Z,95348.62
2018-09-09T18:30:43.981Z,95356.14
2018-09-09T18:33:13.246Z,95353.63
2018-09-09T18:35:42.363Z,95351.74
2018-09-09T18:38:11.355Z,95356.05
2018-09-09T18:40:40.403Z,95362.91
2018-09-09T18:43:09.597Z,95359.77
2018-09-09T18:45:38.651Z,95361.55
2018-09-09T18:48:08.368Z,95359.30
2018-09-09T18:50:38.051Z,95361.81
2018-09-09T18:53:07.232Z,95365.48
2018-09-09T18:55:36.338Z,95360.31
2018-09-09T18:58:05.442Z,95369.66
2018-09-09T19:00:34.538Z,95371.20
2018-09-09T19:03:03.793Z,95374.61
2018-09-09T19:05:32.749Z,95383.08
2018-09-09T19:08:01.753Z,95374.61
2018-09-09T19:10:31.079Z,95377.41
2018-09-09T19:13:00.191Z,95382.20
2018-09-09T19:15:29.279Z,95384.87
2018-09-09T19:17:58.849Z,95395.09
2018-09-09T19:20:27.810Z,95393.20
2018-09-09T19:22:56.868Z,95389.77
2018-09-09T19:25:26.300Z,95393.31
2018-09-09T19:27:55.327Z,95392.81
2018-09-09T19:30:24.349Z,95395.08
2018-09-09T19:32:53.366Z,95389.77
2018-09-09T19:35:23.255Z,95393.31
2018-09-09T19:37:52.266Z,95392.55
2018-09-09T19:40:21.366Z,95392.44
2018-09-09T19:42:50.321Z,95399.11
2018-09-09T19:45:19.982Z,95393.06
2018-09-09T19:47:49.340Z,95391.79
2018-09-09T19:50:18.336Z,95386.34
2018-09-09T19:52:47.514Z,95386.73
2018-09-09T19:55:16.591Z,95386.36
2018-09-09T19:57:45.591Z,95387.87
2018-09-09T20:00:14.839Z,95387.84
2018-09-09T20:02:44.446Z,95387.60
2018-09-09T20:05:13.627Z,95393.91
2018-09-09T20:07:42.641Z,95387.85
2018-09-09T20:10:11.872Z,95384.31
2018-09-09T20:12:41.016Z,95390.97
2018-09-09T20:15:10.099Z,95391.08
2018-09-09T20:17:39.287Z,95389.31
2018-09-09T20:20:08.318Z,95386.18
2018-09-09T20:22:37.443Z,95390.31
2018-09-09T20:25:06.646Z,95391.05
2018-09-09T20:27:35.830Z,95396.36
2018-09-09T20:30:05.044Z,95395.25
2018-09-09T20:32:34.253Z,95394.59
2018-09-09T20:35:03.325Z,95393.97
2018-09-09T20:37:32.305Z,95397.50
2018-09-09T20:40:01.942Z,95400.01
2018-09-09T20:42:30.819Z,95395.22
2018-09-09T20:44:59.890Z,95396.58
2018-09-09T20:47:29.481Z,95393.80
2018-09-09T20:49:58.582Z,95397.44
2018-09-09T20:52:27.582Z,95399.97
2018-09-09T20:54:57.068Z,95393.34
2018-09-09T20:57:26.070Z,95395.95
2018-09-09T20:59:55.263Z,95394.28
2018-09-09T21:02:24.483Z,95385.41
2018-09-09T21:04:53.447Z,95395.98
2018-09-09T21:07:22.647Z,95391.68
2018-09-09T21:09:51.904Z,95395.70
2018-09-09T21:12:20.946Z,95397.33
2018-09-09T21:14:50.234Z,95390.02
2018-09-09T21:17:19.598Z,95394.83
2018-09-09T21:19:48.746Z,95393.03
2018-09-09T21:22:19.104Z,95391.50
2018-09-09T21:24:48.311Z,95386.95
2018-09-09T21:27:17.351Z,95398.09
2018-09-09T21:29:46.715Z,95393.50
2018-09-09T21:32:16.095Z,95381.25
2018-09-09T21:34:45.026Z,95390.06
2018-09-09T21:37:14.135Z,95384.27
2018-09-09T21:39:43.619Z,95394.36
2018-09-09T21:42:12.687Z,95385.56
2018-09-09T21:44:41.843Z,95388.09
2018-09-09T21:47:11.258Z,95387.57
2018-09-09T21:49:40.284Z,95387.86
2018-09-09T21:52:09.375Z,95392.65
2018-09-09T21:54:38.411Z,95387.00
2018-09-09T21:57:07.436Z,95386.51
2018-09-09T21:59:37.003Z,95392.30
2018-09-09T22:02:08.494Z,95391.88
2018-09-09T22:04:38.114Z,95397.27
2018-09-09T22:07:15.234Z,95392.94
2018-09-09T22:09:45.159Z,95393.55
2018-09-09T22:12:14.336Z,95386.98
2018-09-09T22:14:43.791Z,95391.77
2018-09-09T22:17:12.909Z,95388.33
2018-09-09T22:19:41.842Z,95389.28
2018-09-09T22:22:11.103Z,95386.88
2018-09-09T22:24:40.129Z,95379.66
2018-09-09T22:27:09.209Z,95382.23
2018-09-09T22:29:39.123Z,95385.20
2018-09-09T22:32:08.107Z,95382.95
2018-09-09T22:34:37.300Z,95378.47
2018-09-09T22:37:06.662Z,95382.00
2018-09-09T22:39:35.583Z,95380.09
2018-09-09T22:42:04.476Z,95378.28
2018-09-09T22:44:35.706Z,95377.84
2018-09-09T22:47:04.716Z,95380.47
2018-09-09T22:49:33.799Z,95373.45
2018-09-09T22:52:02.928Z,95376.52
2018-09-09T22:54:32.095Z,95374.98
2018-09-09T22:57:01.054Z,95375.23
2018-09-09T22:59:30.223Z,95376.52
2018-09-09T23:01:59.298Z,95379.52
2018-09-09T23:04:28.271Z,95385.92
2018-09-09T23:06:57.652Z,95383.11
2018-09-09T23:09:26.708Z,95377.66
2018-09-09T23:11:55.587Z,95378.12
2018-09-09T23:14:24.742Z,95376.20
2018-09-09T23:16:53.860Z,95380.59
2018-09-09T23:19:22.874Z,95378.33
2018-09-09T23:21:52.307Z,95378.33
2018-09-09T23:24:21.648Z,95374.22
2018-09-09T23:26:50.695Z,95376.45
2018-09-09T23:29:20.250Z,95375.16
2018-09-09T23:31:49.282Z,95375.04
2018-09-09T23:34:18.167Z,95370.80
2018-09-09T23:36:47.514Z,95380.64
2018-09-09T23:39:16.583Z,95373.03
2018-09-09T23:41:45.642Z,95370.89
2018-09-09T23:44:14.995Z,95371.03
2018-09-09T23:46:44.186Z,95371.65
2018-09-09T23:49:13.973Z,95368.09
2018-09-09T23:51:43.280Z,95375.10
2018-09-09T23:54:12.349Z,95365.88
2018-09-09T23:56:41.356Z,95364.64
2018-09-09T23:59:10.815Z,95367.19
